createdAt,value
2022-08-24T00:01:19.787Z,98956.73
2022-08-24T00:03:54.186Z,98957.93
2022-08-24T00:06:28.209Z,98958.13
2022-08-24T00:09:00.550Z,98959.62
2022-08-24T00:11:28.950Z,98963.40
2022-08-24T00:13:59.685Z,98961.00
2022-08-24T00:16:30.412Z,98970.55
2022-08-24T00:19:03.763Z,98976.41
2022-08-24T00:21:31.800Z,98980.94
2022-08-24T00:24:03.147Z,98982.08
2022-08-24T00:26:35.392Z,98982.44
2022-08-24T00:29:07.694Z,98983.58
2022-08-24T00:31:39.074Z,98986.20
2022-08-24T00:34:07.213Z,98986.79
2022-08-24T00:36:38.286Z,98983.14
2022-08-24T00:39:09.832Z,98984.67
2022-08-24T00:41:45.021Z,98985.17
2022-08-24T00:44:16.980Z,98985.25
2022-08-24T00:47:07.840Z,98984.34
2022-08-24T00:49:49.905Z,98984.70
2022-08-24T00:52:41.594Z,98986.71
2022-08-24T00:55:36.155Z,98983.51
2022-08-24T00:58:17.129Z,98985.05
2022-08-24T01:01:03.722Z,98988.23
2022-08-24T01:03:35.996Z,98993.41
2022-08-24T01:06:07.280Z,98994.84
2022-08-24T01:08:37.034Z,98994.16
2022-08-24T01:11:17.478Z,98991.56
2022-08-24T01:13:50.596Z,98991.36
2022-08-24T01:16:41.803Z,98989.92
2022-08-24T01:19:39.782Z,98993.04
2022-08-24T01:22:38.279Z,98996.23
2022-08-24T01:25:09.683Z,98996.48
2022-08-24T01:27:41.930Z,98993.63
2022-08-24T01:30:15.243Z,98999.52
2022-08-24T01:32:56.234Z,99003.27
2022-08-24T01:35:30.148Z,99008.02
2022-08-24T01:38:06.048Z,99003.14
2022-08-24T01:40:41.551Z,99004.02
2022-08-24T01:43:13.739Z,99005.14
2022-08-24T01:45:45.080Z,99006.73
2022-08-24T01:48:22.851Z,99006.88
2022-08-24T01:50:54.049Z,99008.38
2022-08-24T01:53:21.850Z,99009.73
2022-08-24T01:55:51.161Z,99007.73
2022-08-24T01:58:22.003Z,99004.17
2022-08-24T02:00:52.267Z,99001.59
2022-08-24T02:03:27.658Z,99008.59
2022-08-24T02:06:02.675Z,99020.67
2022-08-24T02:08:30.356Z,99032.52
2022-08-24T02:11:01.069Z,99033.16
2022-08-24T02:13:31.308Z,99029.11
2022-08-24T02:16:02.138Z,99027.67
2022-08-24T02:18:32.025Z,99027.94
2022-08-24T02:21:03.709Z,99028.15
2022-08-24T02:23:31.664Z,99025.44
2022-08-24T02:26:04.094Z,99022.85
2022-08-24T02:28:35.867Z,99020.78
2022-08-24T02:31:09.375Z,99025.98
2022-08-24T02:33:41.417Z,99024.45
2022-08-24T02:36:25.285Z,99028.73
2022-08-24T02:38:59.162Z,99028.39
2022-08-24T02:41:30.542Z,99026.75
2022-08-24T02:44:03.231Z,99027.36
2022-08-24T02:46:34.610Z,99025.70
2022-08-24T02:49:11.406Z,99019.64
2022-08-24T02:51:47.389Z,99023.38
2022-08-24T02:54:18.856Z,99023.55
2022-08-24T02:56:50.579Z,99025.89
2022-08-24T02:59:22.457Z,99025.77
2022-08-24T03:01:52.962Z,99026.44
2022-08-24T03:04:22.470Z,99028.09
2022-08-24T03:06:53.177Z,99031.10
2022-08-24T03:09:23.541Z,99032.27
2022-08-24T03:11:55.367Z,99034.16
2022-08-24T03:14:23.343Z,99033.12
2022-08-24T03:16:52.776Z,99035.73
2022-08-24T03:19:24.134Z,99037.80
2022-08-24T03:21:56.658Z,99037.84
2022-08-24T03:24:26.813Z,99035.48
2022-08-24T03:26:57.929Z,99036.97
2022-08-24T03:29:33.615Z,99032.75
2022-08-24T03:32:08.011Z,99027.93
2022-08-24T03:34:39.392Z,99029.31
2022-08-24T03:37:10.503Z,99031.06
2022-08-24T03:39:41.543Z,99037.10
2022-08-24T03:42:09.611Z,99038.25
2022-08-24T03:44:39.513Z,99033.05
2022-08-24T03:47:11.080Z,99033.42
2022-08-24T03:49:41.201Z,99030.19
2022-08-24T03:52:11.420Z,99039.65
2022-08-24T03:54:39.676Z,99041.23
2022-08-24T03:57:11.208Z,99044.16
2022-08-24T03:59:46.662Z,99050.73
2022-08-24T04:02:21.388Z,99049.86
2022-08-24T04:04:51.359Z,99047.40
2022-08-24T04:07:22.509Z,99045.88
2022-08-24T04:09:50.469Z,99048.41
2022-08-24T04:12:20.197Z,99048.57
2022-08-24T04:14:57.032Z,99052.49
2022-08-24T04:17:24.896Z,99053.48
2022-08-24T04:19:58.485Z,99043.67
2022-08-24T04:22:29.707Z,99047.17
2022-08-24T04:25:00.793Z,99053.77
2022-08-24T04:27:28.634Z,99054.30
2022-08-24T04:29:56.955Z,99056.86
2022-08-24T04:32:25.975Z,99053.08
2022-08-24T04:34:53.915Z,99051.06
2022-08-24T04:37:28.464Z,99046.40
2022-08-24T04:39:57.348Z,99047.52
2022-08-24T04:42:27.827Z,99053.73
2022-08-24T04:44:57.056Z,99060.73
2022-08-24T04:47:24.780Z,99064.70
2022-08-24T04:49:52.899Z,99063.99
2022-08-24T04:52:25.585Z,99058.73
2022-08-24T04:54:56.786Z,99053.90
2022-08-24T04:57:24.777Z,99046.79
2022-08-24T04:59:59.253Z,99048.07
2022-08-24T05:02:29.338Z,99053.73
2022-08-24T05:04:58.713Z,99056.02
2022-08-24T05:07:26.614Z,99057.58
2022-08-24T05:09:57.913Z,99058.14
2022-08-24T05:12:29.174Z,99070.79
2022-08-24T05:14:56.934Z,99072.15
2022-08-24T05:17:28.968Z,99072.86
2022-08-24T05:19:59.440Z,99069.45
2022-08-24T05:22:28.423Z,99076.27
2022-08-24T05:24:59.969Z,99080.84
2022-08-24T05:27:27.735Z,99072.59
2022-08-24T05:29:57.633Z,99070.27
2022-08-24T05:32:27.355Z,99072.52
2022-08-24T05:34:55.545Z,99082.73
2022-08-24T05:37:25.411Z,99087.63
2022-08-24T05:39:53.206Z,99089.60
2022-08-24T05:42:25.000Z,99093.34
2022-08-24T05:44:52.781Z,99089.85
2022-08-24T05:47:20.559Z,99094.83
2022-08-24T05:49:55.997Z,99099.73
2022-08-24T05:52:27.574Z,99096.84
2022-08-24T05:54:59.949Z,99093.21
2022-08-24T05:57:33.599Z,99097.08
2022-08-24T06:00:02.238Z,99096.10
2022-08-24T06:02:32.117Z,99097.48
2022-08-24T06:05:06.160Z,99104.23
2022-08-24T06:07:37.185Z,99105.39
2022-08-24T06:10:34.966Z,99103.11
2022-08-24T06:13:01.093Z,99108.79
2022-08-24T06:15:30.817Z,99105.70
2022-08-24T06:18:00.590Z,99102.82
2022-08-24T06:20:29.202Z,99102.54
2022-08-24T06:22:57.155Z,99095.64
2022-08-24T06:25:45.152Z,99095.64
2022-08-24T06:28:15.051Z,99089.73
2022-08-24T06:30:46.809Z,99085.80
2022-08-24T06:33:14.905Z,99084.42
2022-08-24T06:35:47.041Z,99087.80
2022-08-24T06:38:17.397Z,99094.84
2022-08-24T06:40:53.885Z,99096.09
2022-08-24T06:43:21.812Z,99102.80
2022-08-24T06:45:49.627Z,99102.86
2022-08-24T06:48:21.411Z,99106.07
2022-08-24T06:50:53.375Z,99111.41
2022-08-24T06:53:22.139Z,99116.88
2022-08-24T06:55:56.979Z,99118.46
2022-08-24T06:58:30.172Z,99114.70
2022-08-24T07:01:08.595Z,99124.86
2022-08-24T07:03:36.411Z,99123.23
2022-08-24T07:06:08.538Z,99121.01
2022-08-24T07:08:42.353Z,99117.89
2022-08-24T07:11:15.232Z,99116.23
2022-08-24T07:13:49.201Z,99108.80
2022-08-24T07:16:21.693Z,99102.45
2022-08-24T07:18:52.560Z,99104.27
2022-08-24T07:21:26.944Z,99102.58
2022-08-24T07:24:00.225Z,99099.95
2022-08-24T07:26:32.093Z,99095.95
2022-08-24T07:29:43.626Z,99096.09
2022-08-24T07:32:06.091Z,99094.29
2022-08-24T07:34:33.895Z,99092.24
2022-08-24T07:37:07.929Z,99096.79
2022-08-24T07:39:35.769Z,99097.80
2022-08-24T07:42:13.776Z,99104.66
2022-08-24T07:44:44.267Z,99109.67
2022-08-24T07:47:36.606Z,99109.01
2022-08-24T07:50:01.360Z,99102.85
2022-08-24T07:52:29.210Z,99105.40
2022-08-24T07:54:57.667Z,99106.00
2022-08-24T07:57:26.173Z,99101.25
2022-08-24T08:00:06.935Z,99104.30
2022-08-24T08:02:35.120Z,99104.95
2022-08-24T08:05:09.106Z,99102.58
2022-08-24T08:07:37.382Z,99102.71
2022-08-24T08:10:10.391Z,99105.21
2022-08-24T08:12:39.302Z,99103.91
2022-08-24T08:15:11.457Z,99103.42
2022-08-24T08:17:41.285Z,99099.98
2022-08-24T08:20:13.668Z,99094.34
2022-08-24T08:23:10.827Z,99091.45
2022-08-24T08:25:40.355Z,99091.06
2022-08-24T08:28:25.350Z,99091.38
2022-08-24T08:31:00.178Z,99084.16
2022-08-24T08:33:32.346Z,99082.77
2022-08-24T08:36:12.028Z,99074.23
2022-08-24T08:38:43.426Z,99073.04
2022-08-24T08:41:34.308Z,99076.41
2022-08-24T08:44:34.992Z,99078.38
2022-08-24T08:47:12.463Z,99079.48
2022-08-24T08:50:08.328Z,99084.60
2022-08-24T08:52:51.699Z,99083.73
2022-08-24T08:55:46.483Z,99080.71
2022-08-24T08:58:51.128Z,99081.67
2022-08-24T09:01:57.009Z,99083.70
2022-08-24T09:04:55.937Z,99084.01
2022-08-24T09:08:15.377Z,99088.14
2022-08-24T09:11:08.024Z,99090.65
2022-08-24T09:14:05.438Z,99091.17
2022-08-24T09:16:56.388Z,99093.64
2022-08-24T09:20:06.639Z,99098.70
2022-08-24T09:22:43.635Z,99095.39
2022-08-24T09:25:35.965Z,99092.02
2022-08-24T09:28:35.711Z,99091.73
2022-08-24T09:31:12.718Z,99087.20
2022-08-24T09:33:44.944Z,99088.14
2022-08-24T09:36:42.272Z,99089.01
2022-08-24T09:39:19.260Z,99083.16
2022-08-24T09:42:30.043Z,99085.45
2022-08-24T09:45:15.229Z,99082.43
2022-08-24T09:47:48.878Z,99076.33
2022-08-24T09:50:41.377Z,99073.85
2022-08-24T09:53:15.202Z,99077.21
2022-08-24T09:56:29.272Z,99077.34
2022-08-24T09:59:34.506Z,99076.50
2022-08-24T10:02:25.003Z,99075.27
2022-08-24T10:05:18.097Z,99071.99
2022-08-24T10:08:39.094Z,99072.74
2022-08-24T10:11:33.693Z,99073.10
2022-08-24T10:14:36.418Z,99071.73
2022-08-24T10:17:06.793Z,99065.92
2022-08-24T10:19:49.901Z,99064.98
2022-08-24T10:22:46.654Z,99064.05
2022-08-24T10:25:39.321Z,99065.02
2022-08-24T10:28:43.266Z,99068.77
2022-08-24T10:31:23.305Z,99066.11
2022-08-24T10:34:21.597Z,99065.88
2022-08-24T10:37:25.142Z,99067.70
2022-08-24T10:40:09.622Z,99064.63
2022-08-24T10:43:04.591Z,99060.06
2022-08-24T10:45:35.462Z,99054.04
2022-08-24T10:48:46.208Z,99046.70
2022-08-24T10:51:52.120Z,99045.02
2022-08-24T10:54:24.774Z,99037.78
2022-08-24T10:57:15.045Z,99040.02
2022-08-24T11:00:18.258Z,99037.92
2022-08-24T11:03:12.349Z,99045.27
2022-08-24T11:05:56.586Z,99048.06
2022-08-24T11:08:29.642Z,99056.25
2022-08-24T11:11:10.783Z,99058.26
2022-08-24T11:13:59.264Z,99057.48
2022-08-24T11:16:47.103Z,99057.69
2022-08-24T11:19:34.565Z,99059.95
2022-08-24T11:22:31.096Z,99060.75
2022-08-24T11:25:19.786Z,99055.83
2022-08-24T11:27:57.312Z,99055.37
2022-08-24T11:30:31.516Z,99060.23
2022-08-24T11:33:06.306Z,99063.73
2022-08-24T11:35:34.083Z,99063.39
2022-08-24T11:38:26.308Z,99062.52
2022-08-24T11:41:03.852Z,99064.05
2022-08-24T11:43:48.339Z,99061.55
2022-08-24T11:46:50.546Z,99059.16
2022-08-24T11:49:33.939Z,99053.27
2022-08-24T11:52:34.679Z,99055.02
2022-08-24T11:55:14.311Z,99052.55
2022-08-24T11:58:03.166Z,99054.93
2022-08-24T12:00:46.058Z,99054.19
2022-08-24T12:03:32.689Z,99056.97
2022-08-24T12:06:09.747Z,99055.76
2022-08-24T12:08:54.478Z,99049.71
2022-08-24T12:11:55.487Z,99049.56
2022-08-24T12:14:40.437Z,99045.30
2022-08-24T12:17:24.445Z,99045.42
2022-08-24T12:20:02.405Z,99042.31
2022-08-24T12:22:32.576Z,99042.10
2022-08-24T12:25:24.849Z,99039.17
2022-08-24T12:27:56.013Z,99035.80
2022-08-24T12:30:25.406Z,99028.27
2022-08-24T12:32:59.376Z,99027.47
2022-08-24T12:35:35.577Z,99024.39
2022-08-24T12:38:20.050Z,99016.88
2022-08-24T12:41:02.359Z,99018.98
2022-08-24T12:43:49.926Z,99031.20
2022-08-24T12:46:23.931Z,99032.70
2022-08-24T12:48:58.466Z,99033.89
2022-08-24T12:51:40.496Z,99032.52
2022-08-24T12:54:58.538Z,99028.03
2022-08-24T12:58:03.701Z,99017.33
2022-08-24T13:00:42.551Z,99013.37
2022-08-24T13:03:25.640Z,99011.59
2022-08-24T13:05:58.944Z,99009.38
2022-08-24T13:08:46.030Z,99016.34
2022-08-24T13:11:29.575Z,99018.46
2022-08-24T13:13:58.080Z,99021.90
2022-08-24T13:16:56.736Z,99019.29
2022-08-24T13:19:31.717Z,99024.33
2022-08-24T13:22:21.553Z,99027.60
2022-08-24T13:25:00.714Z,99033.29
2022-08-24T13:27:38.011Z,99040.13
2022-08-24T13:30:19.473Z,99039.73
2022-08-24T13:33:00.171Z,99040.69
2022-08-24T13:35:37.280Z,99046.74
2022-08-24T13:38:24.248Z,99050.09
2022-08-24T13:41:36.609Z,99044.98
2022-08-24T13:44:24.566Z,99049.50
2022-08-24T13:47:05.128Z,99058.17
2022-08-24T13:50:04.148Z,99060.60
2022-08-24T13:52:48.666Z,99071.09
2022-08-24T13:55:45.239Z,99074.85
2022-08-24T13:58:35.236Z,99079.77
2022-08-24T14:01:24.096Z,99084.70
2022-08-24T14:03:56.361Z,99086.65
2022-08-24T14:07:01.976Z,99083.19
2022-08-24T14:09:49.597Z,99085.33
2022-08-24T14:12:35.261Z,99084.75
2022-08-24T14:15:08.755Z,99079.61
2022-08-24T14:17:55.875Z,99081.25
2022-08-24T14:20:56.630Z,99079.97
2022-08-24T14:23:53.162Z,99077.44
2022-08-24T14:26:34.265Z,99068.04
2022-08-24T14:29:17.992Z,99067.59
2022-08-24T14:32:00.076Z,99067.77
2022-08-24T14:35:06.400Z,99061.45
2022-08-24T14:38:02.196Z,99059.95
2022-08-24T14:40:43.679Z,99057.53
2022-08-24T14:43:11.679Z,99053.53
2022-08-24T14:46:07.691Z,99047.65
2022-08-24T14:48:58.411Z,99042.75
2022-08-24T14:52:06.284Z,99043.93
2022-08-24T14:54:37.863Z,99042.86
2022-08-24T14:57:31.432Z,99042.73
2022-08-24T15:00:15.387Z,99047.48
2022-08-24T15:02:55.909Z,99047.60
2022-08-24T15:05:33.155Z,99047.21
2022-08-24T15:08:07.842Z,99049.16
2022-08-24T15:10:43.508Z,99057.77
2022-08-24T15:13:37.034Z,99066.58
2022-08-24T15:16:11.496Z,99066.66
2022-08-24T15:18:51.188Z,99068.36
2022-08-24T15:21:35.756Z,99065.65
2022-08-24T15:24:10.261Z,99063.89
2022-08-24T15:27:02.006Z,99063.70
2022-08-24T15:29:34.368Z,99056.15
2022-08-24T15:32:11.236Z,99052.54
2022-08-24T15:34:46.712Z,99050.31
2022-08-24T15:37:26.656Z,99050.40
2022-08-24T15:39:56.673Z,99052.71
2022-08-24T15:42:30.175Z,99054.20
2022-08-24T15:45:03.389Z,99051.28
2022-08-24T15:47:37.014Z,99055.39
2022-08-24T15:50:20.505Z,99055.56
2022-08-24T15:53:01.678Z,99060.26
2022-08-24T15:55:42.241Z,99059.84
2022-08-24T15:58:25.777Z,99063.98
2022-08-24T16:01:39.720Z,99068.42
2022-08-24T16:04:14.456Z,99069.65
2022-08-24T16:06:47.481Z,99071.52
2022-08-24T16:09:33.381Z,99073.28
2022-08-24T16:12:24.044Z,99072.56
2022-08-24T16:15:09.559Z,99074.70
2022-08-24T16:17:51.872Z,99076.94
2022-08-24T16:20:25.571Z,99084.94
2022-08-24T16:23:06.353Z,99087.81
2022-08-24T16:25:42.898Z,99090.19
2022-08-24T16:28:21.148Z,99095.91
2022-08-24T16:30:58.973Z,99097.52
2022-08-24T16:33:32.241Z,99098.48
2022-08-24T16:36:05.672Z,99095.89
2022-08-24T16:38:35.787Z,99099.13
2022-08-24T16:41:10.652Z,99100.16
2022-08-24T16:43:41.724Z,99100.54
2022-08-24T16:46:14.168Z,99106.36
2022-08-24T16:48:42.127Z,99111.13
2022-08-24T16:51:11.061Z,99113.46
2022-08-24T16:53:40.904Z,99109.55
2022-08-24T16:56:13.633Z,99106.92
2022-08-24T16:58:47.669Z,99104.61
2022-08-24T17:01:19.559Z,99110.15
2022-08-24T17:03:47.650Z,99111.89
2022-08-24T17:06:19.749Z,99120.71
2022-08-24T17:08:49.181Z,99128.77
2022-08-24T17:11:19.107Z,99135.88
2022-08-24T17:13:50.682Z,99138.60
2022-08-24T17:16:21.951Z,99139.08
2022-08-24T17:18:51.230Z,99144.52
2022-08-24T17:21:21.396Z,99143.83
2022-08-24T17:23:52.965Z,99144.86
2022-08-24T17:26:21.796Z,99148.46
2022-08-24T17:28:55.476Z,99149.17
2022-08-24T17:31:26.728Z,99147.12
2022-08-24T17:33:57.650Z,99149.67
2022-08-24T17:36:31.153Z,99149.05
2022-08-24T17:39:08.210Z,99150.10
2022-08-24T17:41:38.153Z,99153.31
2022-08-24T17:44:10.583Z,99156.33
2022-08-24T17:46:41.511Z,99153.40
2022-08-24T17:49:13.284Z,99152.07
2022-08-24T17:51:44.659Z,99151.02
2022-08-24T17:54:15.200Z,99155.83
2022-08-24T17:56:48.757Z,99159.00
2022-08-24T17:59:23.930Z,99158.78
2022-08-24T18:01:58.695Z,99160.91
2022-08-24T18:04:30.598Z,99161.71
2022-08-24T18:07:04.685Z,99165.73
2022-08-24T18:09:53.972Z,99168.73
2022-08-24T18:12:25.578Z,99169.85
2022-08-24T18:14:58.892Z,99167.55
2022-08-24T18:17:43.482Z,99170.05
2022-08-24T18:20:14.936Z,99176.22
2022-08-24T18:22:47.206Z,99176.10
2022-08-24T18:25:25.399Z,99174.94
2022-08-24T18:27:58.589Z,99176.14
2022-08-24T18:30:32.554Z,99181.80
2022-08-24T18:33:04.998Z,99176.88
2022-08-24T18:35:37.547Z,99184.12
2022-08-24T18:38:05.467Z,99191.52
2022-08-24T18:40:33.745Z,99195.08
2022-08-24T18:43:06.430Z,99194.81
2022-08-24T18:45:35.941Z,99195.52
2022-08-24T18:48:04.251Z,99193.73
2022-08-24T18:50:42.004Z,99194.84
2022-08-24T18:53:14.959Z,99197.59
2022-08-24T18:55:48.023Z,99201.37
2022-08-24T18:58:16.148Z,99206.85
2022-08-24T19:00:48.662Z,99206.10
2022-08-24T19:03:21.529Z,99207.27
2022-08-24T19:05:51.803Z,99210.02
2022-08-24T19:08:19.678Z,99212.64
2022-08-24T19:10:47.542Z,99216.47
2022-08-24T19:13:19.085Z,99218.50
2022-08-24T19:15:53.167Z,99218.61
2022-08-24T19:18:21.741Z,99220.19
2022-08-24T19:20:56.295Z,99220.79
2022-08-24T19:23:37.327Z,99222.73
2022-08-24T19:26:07.152Z,99221.87
2022-08-24T19:28:35.140Z,99223.56
2022-08-24T19:31:08.657Z,99215.27
2022-08-24T19:33:43.843Z,99215.02
2022-08-24T19:36:19.125Z,99218.26
2022-08-24T19:38:48.193Z,99217.31
2022-08-24T19:41:19.892Z,99214.95
2022-08-24T19:44:23.492Z,99214.39
2022-08-24T19:46:59.827Z,99214.79
2022-08-24T19:49:28.038Z,99213.04
2022-08-24T19:51:55.868Z,99216.80
2022-08-24T19:54:25.900Z,99217.86
2022-08-24T19:56:55.412Z,99214.48
2022-08-24T19:59:40.826Z,99217.97
2022-08-24T20:02:08.815Z,99216.56
2022-08-24T20:04:37.671Z,99218.04
2022-08-24T20:07:06.116Z,99216.41
2022-08-24T20:09:33.938Z,99215.94
2022-08-24T20:12:01.689Z,99215.45
2022-08-24T20:14:37.306Z,99216.27
2022-08-24T20:17:09.650Z,99219.90
2022-08-24T20:19:40.478Z,99226.02
2022-08-24T20:22:13.113Z,99232.13
2022-08-24T20:24:45.654Z,99231.11
2022-08-24T20:27:26.609Z,99232.67
2022-08-24T20:29:59.025Z,99234.73
2022-08-24T20:32:30.014Z,99234.92
2022-08-24T20:35:02.637Z,99235.76
2022-08-24T20:37:35.888Z,99234.99
2022-08-24T20:40:06.540Z,99236.16
2022-08-24T20:42:35.176Z,99235.60
2022-08-24T20:45:08.530Z,99232.53
2022-08-24T20:47:51.704Z,99233.38
2022-08-24T20:50:26.357Z,99232.36
2022-08-24T20:52:54.339Z,99234.58
2022-08-24T20:55:24.894Z,99231.38
2022-08-24T20:57:57.126Z,99230.01
2022-08-24T21:00:28.123Z,99235.40
2022-08-24T21:02:56.318Z,99236.42
2022-08-24T21:05:24.706Z,99237.95
2022-08-24T21:07:54.736Z,99235.63
2022-08-24T21:10:26.805Z,99238.08
2022-08-24T21:12:55.634Z,99237.93
2022-08-24T21:15:23.702Z,99236.24
2022-08-24T21:17:52.254Z,99237.87
2022-08-24T21:20:21.279Z,99235.27
2022-08-24T21:22:50.032Z,99234.23
2022-08-24T21:25:18.502Z,99230.41
2022-08-24T21:27:49.160Z,99228.13
2022-08-24T21:30:21.336Z,99226.63
2022-08-24T21:33:08.843Z,99225.18
2022-08-24T21:35:41.099Z,99222.88
2022-08-24T21:38:10.103Z,99221.03
2022-08-24T21:40:38.409Z,99220.20
2022-08-24T21:43:14.785Z,99228.30
2022-08-24T21:45:51.473Z,99229.04
2022-08-24T21:48:20.017Z,99229.73
2022-08-24T21:50:49.057Z,99231.05
2022-08-24T21:53:17.489Z,99234.61
2022-08-24T21:55:46.172Z,99237.23
2022-08-24T21:58:14.156Z,99237.27
2022-08-24T22:00:44.090Z,99233.11
2022-08-24T22:03:12.720Z,99227.16
2022-08-24T22:05:40.984Z,99224.66
2022-08-24T22:08:09.476Z,99217.46
2022-08-24T22:10:38.371Z,99213.95
2022-08-24T22:13:07.673Z,99212.22
2022-08-24T22:15:37.463Z,99208.72
2022-08-24T22:18:05.537Z,99207.27
2022-08-24T22:20:33.626Z,99205.66
2022-08-24T22:23:01.623Z,99202.08
2022-08-24T22:25:30.420Z,99196.20
2022-08-24T22:27:58.696Z,99197.39
2022-08-24T22:30:26.752Z,99198.36
2022-08-24T22:32:55.106Z,99197.09
2022-08-24T22:35:23.485Z,99194.71
2022-08-24T22:37:52.127Z,99191.19
2022-08-24T22:40:20.441Z,99191.77
2022-08-24T22:42:48.210Z,99187.83
2022-08-24T22:45:17.203Z,99183.77
2022-08-24T22:47:45.186Z,99178.77
2022-08-24T22:50:13.199Z,99177.73
2022-08-24T22:52:41.413Z,99176.85
2022-08-24T22:55:10.509Z,99174.56
2022-08-24T22:57:38.342Z,99171.67
2022-08-24T23:00:10.443Z,99166.97
2022-08-24T23:02:44.107Z,99166.40
2022-08-24T23:05:12.216Z,99163.84
2022-08-24T23:07:40.429Z,99161.14
2022-08-24T23:10:09.448Z,99156.52
2022-08-24T23:12:37.421Z,99153.91
2022-08-24T23:15:06.538Z,99149.65
2022-08-24T23:17:34.750Z,99147.86
2022-08-24T23:20:06.989Z,99152.04
2022-08-24T23:22:38.983Z,99150.59
2022-08-24T23:25:10.045Z,99150.66
2022-08-24T23:27:39.011Z,99148.88
2022-08-24T23:30:12.313Z,99141.93
2022-08-24T23:32:40.994Z,99142.20
2022-08-24T23:35:10.125Z,99143.86
2022-08-24T23:37:38.263Z,99146.27
2022-08-24T23:40:07.545Z,99149.27
2022-08-24T23:42:35.972Z,99148.81
2022-08-24T23:45:04.105Z,99145.61
2022-08-24T23:47:36.110Z,99143.18
2022-08-24T23:50:11.035Z,99142.34
2022-08-24T23:52:43.135Z,99147.08
2022-08-24T23:55:20.910Z,99148.48
2022-08-24T23:57:53.782Z,99153.74
